sensor_id;sensor_type;location;lat;lon;timestamp;temperature;humidity
1301;DHT22;59099;48.806;9.160;2022-10-31T00:00:30;11.60;99.90
1301;DHT22;59099;48.806;9.160;2022-10-31T00:02:56;11.60;99.90
1301;DHT22;59099;48.806;9.160;2022-10-31T00:05:25;11.50;99.90
1301;DHT22;59099;48.806;9.160;2022-10-31T00:07:54;11.50;99.90
1301;DHT22;59099;48.806;9.160;2022-10-31T00:10:20;11.50;99.90
1301;DHT22;59099;48.806;9.160;2022-10-31T00:12:45;11.50;99.90
1301;DHT22;59099;48.806;9.160;2022-10-31T00:15:11;11.50;99.90
1301;DHT22;59099;48.806;9.160;2022-10-31T00:17:36;11.40;99.90
1301;DHT22;59099;48.806;9.160;2022-10-31T00:20:02;11.50;99.90
1301;DHT22;59099;48.806;9.160;2022-10-31T00:22:28;11.40;99.90
1301;DHT22;59099;48.806;9.160;2022-10-31T00:24:54;11.40;99.90
1301;DHT22;59099;48.806;9.160;2022-10-31T00:27:19;11.30;99.90
1301;DHT22;59099;48.806;9.160;2022-10-31T00:29:45;11.40;99.90
1301;DHT22;59099;48.806;9.160;2022-10-31T00:32:11;11.40;99.90
1301;DHT22;59099;48.806;9.160;2022-10-31T00:34:40;11.30;99.90
1301;DHT22;59099;48.806;9.160;2022-10-31T00:37:05;11.30;99.90
1301;DHT22;59099;48.806;9.160;2022-10-31T00:39:31;11.40;99.90
1301;DHT22;59099;48.806;9.160;2022-10-31T00:41:57;11.30;99.90
1301;DHT22;59099;48.806;9.160;2022-10-31T00:44:22;11.20;99.90
1301;DHT22;59099;48.806;9.160;2022-10-31T00:46:48;11.20;99.90
1301;DHT22;59099;48.806;9.160;2022-10-31T00:49:14;11.20;99.90
1301;DHT22;59099;48.806;9.160;2022-10-31T00:51:40;11.10;99.90
1301;DHT22;59099;48.806;9.160;2022-10-31T00:54:06;11.10;99.90
1301;DHT22;59099;48.806;9.160;2022-10-31T00:56:32;11.10;99.90
1301;DHT22;59099;48.806;9.160;2022-10-31T00:58:59;11.00;99.90
1301;DHT22;59099;48.806;9.160;2022-10-31T01:01:25;11.00;99.90
1301;DHT22;59099;48.806;9.160;2022-10-31T01:03:51;11.00;99.90
1301;DHT22;59099;48.806;9.160;2022-10-31T01:06:17;10.90;99.90
1301;DHT22;59099;48.806;9.160;2022-10-31T01:08:42;11.00;99.90
1301;DHT22;59099;48.806;9.160;2022-10-31T01:11:18;11.00;99.90
1301;DHT22;59099;48.806;9.160;2022-10-31T01:13:45;11.00;99.90
1301;DHT22;59099;48.806;9.160;2022-10-31T01:16:14;11.00;99.90
1301;DHT22;59099;48.806;9.160;2022-10-31T01:18:40;10.90;99.90
1301;DHT22;59099;48.806;9.160;2022-10-31T01:21:10;10.90;99.90
1301;DHT22;59099;48.806;9.160;2022-10-31T01:23:40;10.90;99.90
1301;DHT22;59099;48.806;9.160;2022-10-31T01:26:14;10.90;99.90
1301;DHT22;59099;48.806;9.160;2022-10-31T01:28:45;11.00;99.90
1301;DHT22;59099;48.806;9.160;2022-10-31T01:31:12;10.90;99.90
1301;DHT22;59099;48.806;9.160;2022-10-31T01:33:38;10.90;99.90
1301;DHT22;59099;48.806;9.160;2022-10-31T01:36:22;11.00;99.90
1301;DHT22;59099;48.806;9.160;2022-10-31T01:38:51;11.00;99.90
1301;DHT22;59099;48.806;9.160;2022-10-31T01:41:20;11.00;99.90
1301;DHT22;59099;48.806;9.160;2022-10-31T01:43:52;10.90;99.90
1301;DHT22;59099;48.806;9.160;2022-10-31T01:46:39;10.90;99.90
1301;DHT22;59099;48.806;9.160;2022-10-31T01:49:13;10.90;99.90
1301;DHT22;59099;48.806;9.160;2022-10-31T01:51:44;10.90;99.90
1301;DHT22;59099;48.806;9.160;2022-10-31T01:54:17;10.90;99.90
1301;DHT22;59099;48.806;9.160;2022-10-31T01:56:47;10.90;99.90
1301;DHT22;59099;48.806;9.160;2022-10-31T01:59:16;11.10;99.90
1301;DHT22;59099;48.806;9.160;2022-10-31T02:01:43;11.10;99.90
1301;DHT22;59099;48.806;9.160;2022-10-31T02:04:09;10.90;99.90
1301;DHT22;59099;48.806;9.160;2022-10-31T02:06:48;10.90;99.90
1301;DHT22;59099;48.806;9.160;2022-10-31T02:09:16;11.00;99.90
1301;DHT22;59099;48.806;9.160;2022-10-31T02:11:43;11.00;99.90
1301;DHT22;59099;48.806;9.160;2022-10-31T02:14:10;10.90;99.90
1301;DHT22;59099;48.806;9.160;2022-10-31T02:16:36;10.80;99.90
1301;DHT22;59099;48.806;9.160;2022-10-31T02:19:04;10.70;99.90
1301;DHT22;59099;48.806;9.160;2022-10-31T02:30:02;10.70;99.90
1301;DHT22;59099;48.806;9.160;2022-10-31T02:38:28;10.70;99.90
1301;DHT22;59099;48.806;9.160;2022-10-31T02:44:00;10.80;99.90
1301;DHT22;59099;48.806;9.160;2022-10-31T02:49:15;10.60;99.90
1301;DHT22;59099;48.806;9.160;2022-10-31T02:51:43;10.60;99.90
1301;DHT22;59099;48.806;9.160;2022-10-31T02:54:36;10.60;99.90
1301;DHT22;59099;48.806;9.160;2022-10-31T02:57:04;10.50;99.90
1301;DHT22;59099;48.806;9.160;2022-10-31T02:59:35;10.50;99.90
1301;DHT22;59099;48.806;9.160;2022-10-31T03:05:35;10.40;99.90
1301;DHT22;59099;48.806;9.160;2022-10-31T03:10:57;10.30;99.90
1301;DHT22;59099;48.806;9.160;2022-10-31T03:13:36;10.20;99.90
1301;DHT22;59099;48.806;9.160;2022-10-31T03:19:05;10.10;99.90
1301;DHT22;59099;48.806;9.160;2022-10-31T03:21:50;10.10;99.90
1301;DHT22;59099;48.806;9.160;2022-10-31T03:24:19;10.00;99.90
1301;DHT22;59099;48.806;9.160;2022-10-31T03:26:52;10.00;99.90
1301;DHT22;59099;48.806;9.160;2022-10-31T03:29:22;10.00;99.90
1301;DHT22;59099;48.806;9.160;2022-10-31T03:32:02;10.00;99.90
1301;DHT22;59099;48.806;9.160;2022-10-31T03:34:30;10.10;99.90
1301;DHT22;59099;48.806;9.160;2022-10-31T03:37:00;10.10;99.90
1301;DHT22;59099;48.806;9.160;2022-10-31T03:39:28;10.20;99.90
1301;DHT22;59099;48.806;9.160;2022-10-31T03:42:02;10.10;99.90
1301;DHT22;59099;48.806;9.160;2022-10-31T03:44:29;10.10;99.90
1301;DHT22;59099;48.806;9.160;2022-10-31T03:47:00;10.20;99.90
1301;DHT22;59099;48.806;9.160;2022-10-31T03:49:27;10.20;99.90
1301;DHT22;59099;48.806;9.160;2022-10-31T03:54:45;10.10;99.90
1301;DHT22;59099;48.806;9.160;2022-10-31T03:57:37;10.10;99.90
1301;DHT22;59099;48.806;9.160;2022-10-31T04:00:11;10.00;99.90
1301;DHT22;59099;48.806;9.160;2022-10-31T04:02:57;10.10;99.90
1301;DHT22;59099;48.806;9.160;2022-10-31T04:05:28;10.10;99.90
1301;DHT22;59099;48.806;9.160;2022-10-31T04:07:59;10.10;99.90
1301;DHT22;59099;48.806;9.160;2022-10-31T04:10:27;10.00;99.90
1301;DHT22;59099;48.806;9.160;2022-10-31T04:13:00;10.10;99.90
1301;DHT22;59099;48.806;9.160;2022-10-31T04:15:33;10.00;99.90
1301;DHT22;59099;48.806;9.160;2022-10-31T04:18:01;9.90;99.90
1301;DHT22;59099;48.806;9.160;2022-10-31T04:20:38;9.90;99.90
1301;DHT22;59099;48.806;9.160;2022-10-31T04:23:14;9.90;99.90
1301;DHT22;59099;48.806;9.160;2022-10-31T04:25:42;9.80;99.90
1301;DHT22;59099;48.806;9.160;2022-10-31T04:28:08;9.80;99.90
1301;DHT22;59099;48.806;9.160;2022-10-31T04:30:34;9.80;99.90
1301;DHT22;59099;48.806;9.160;2022-10-31T04:32:59;9.80;99.90
1301;DHT22;59099;48.806;9.160;2022-10-31T04:35:26;9.70;99.90
1301;DHT22;59099;48.806;9.160;2022-10-31T04:37:53;9.80;99.90
1301;DHT22;59099;48.806;9.160;2022-10-31T04:40:19;9.80;99.90
1301;DHT22;59099;48.806;9.160;2022-10-31T04:43:04;9.80;99.90
1301;DHT22;59099;48.806;9.160;2022-10-31T04:45:30;9.80;99.90
1301;DHT22;59099;48.806;9.160;2022-10-31T04:47:56;9.70;99.90
1301;DHT22;59099;48.806;9.160;2022-10-31T04:50:22;9.80;99.90
1301;DHT22;59099;48.806;9.160;2022-10-31T04:52:48;9.70;99.90
1301;DHT22;59099;48.806;9.160;2022-10-31T04:55:20;9.60;99.90
1301;DHT22;59099;48.806;9.160;2022-10-31T04:58:09;9.60;99.90
1301;DHT22;59099;48.806;9.160;2022-10-31T05:00:35;9.60;99.90
1301;DHT22;59099;48.806;9.160;2022-10-31T05:03:01;9.60;99.90
1301;DHT22;59099;48.806;9.160;2022-10-31T05:05:29;9.60;99.90
1301;DHT22;59099;48.806;9.160;2022-10-31T05:07:58;9.60;99.90
1301;DHT22;59099;48.806;9.160;2022-10-31T05:10:27;9.50;99.90
1301;DHT22;59099;48.806;9.160;2022-10-31T05:12:59;9.40;99.90
1301;DHT22;59099;48.806;9.160;2022-10-31T05:15:47;9.50;99.90
1301;DHT22;59099;48.806;9.160;2022-10-31T05:18:31;9.50;99.90
1301;DHT22;59099;48.806;9.160;2022-10-31T05:21:12;9.50;99.90
1301;DHT22;59099;48.806;9.160;2022-10-31T05:23:44;9.40;99.90
1301;DHT22;59099;48.806;9.160;2022-10-31T05:26:11;9.40;99.90
1301;DHT22;59099;48.806;9.160;2022-10-31T05:28:37;9.40;99.90
1301;DHT22;59099;48.806;9.160;2022-10-31T05:31:03;9.40;99.90
1301;DHT22;59099;48.806;9.160;2022-10-31T05:33:29;9.40;99.90
1301;DHT22;59099;48.806;9.160;2022-10-31T05:36:24;9.40;99.90
1301;DHT22;59099;48.806;9.160;2022-10-31T05:38:56;9.40;99.90
1301;DHT22;59099;48.806;9.160;2022-10-31T05:41:24;9.40;99.90
1301;DHT22;59099;48.806;9.160;2022-10-31T05:43:53;9.40;99.90
1301;DHT22;59099;48.806;9.160;2022-10-31T05:46:23;9.30;99.90
1301;DHT22;59099;48.806;9.160;2022-10-31T05:49:04;9.40;99.90
1301;DHT22;59099;48.806;9.160;2022-10-31T05:51:48;9.40;99.90
1301;DHT22;59099;48.806;9.160;2022-10-31T05:54:15;9.40;99.90
1301;DHT22;59099;48.806;9.160;2022-10-31T05:56:42;9.40;99.90
1301;DHT22;59099;48.806;9.160;2022-10-31T05:59:08;9.30;99.90
1301;DHT22;59099;48.806;9.160;2022-10-31T06:01:34;9.30;99.90
1301;DHT22;59099;48.806;9.160;2022-10-31T06:04:04;9.20;99.90
1301;DHT22;59099;48.806;9.160;2022-10-31T06:06:31;9.20;99.90
1301;DHT22;59099;48.806;9.160;2022-10-31T06:08:59;9.20;99.90
1301;DHT22;59099;48.806;9.160;2022-10-31T06:11:26;9.20;99.90
1301;DHT22;59099;48.806;9.160;2022-10-31T06:14:04;9.20;99.90
1301;DHT22;59099;48.806;9.160;2022-10-31T06:16:42;9.20;99.90
1301;DHT22;59099;48.806;9.160;2022-10-31T06:19:28;9.20;99.90
1301;DHT22;59099;48.806;9.160;2022-10-31T06:21:53;9.20;99.90
1301;DHT22;59099;48.806;9.160;2022-10-31T06:24:19;9.30;99.90
1301;DHT22;59099;48.806;9.160;2022-10-31T06:27:14;9.40;99.90
1301;DHT22;59099;48.806;9.160;2022-10-31T06:29:40;9.40;99.90
1301;DHT22;59099;48.806;9.160;2022-10-31T06:32:11;9.40;99.90
1301;DHT22;59099;48.806;9.160;2022-10-31T06:34:44;9.40;99.90
1301;DHT22;59099;48.806;9.160;2022-10-31T06:37:18;9.30;99.90
1301;DHT22;59099;48.806;9.160;2022-10-31T06:39:48;9.40;99.90
1301;DHT22;59099;48.806;9.160;2022-10-31T06:42:16;9.30;99.90
1301;DHT22;59099;48.806;9.160;2022-10-31T06:44:42;9.30;99.90
1301;DHT22;59099;48.806;9.160;2022-10-31T06:47:26;9.30;99.90
1301;DHT22;59099;48.806;9.160;2022-10-31T06:50:19;9.30;99.90
1301;DHT22;59099;48.806;9.160;2022-10-31T06:52:56;9.30;99.90
1301;DHT22;59099;48.806;9.160;2022-10-31T06:55:26;9.30;99.90
1301;DHT22;59099;48.806;9.160;2022-10-31T06:57:57;9.30;99.90
1301;DHT22;59099;48.806;9.160;2022-10-31T07:00:28;9.40;99.90
1301;DHT22;59099;48.806;9.160;2022-10-31T07:03:04;9.50;99.90
1301;DHT22;59099;48.806;9.160;2022-10-31T07:05:32;9.50;99.90
1301;DHT22;59099;48.806;9.160;2022-10-31T07:08:00;9.60;99.90
1301;DHT22;59099;48.806;9.160;2022-10-31T07:10:28;9.60;99.90
1301;DHT22;59099;48.806;9.160;2022-10-31T07:13:02;9.70;99.90
1301;DHT22;59099;48.806;9.160;2022-10-31T07:15:38;9.80;99.90
1301;DHT22;59099;48.806;9.160;2022-10-31T07:18:06;9.90;99.90
1301;DHT22;59099;48.806;9.160;2022-10-31T07:20:33;10.00;99.90
1301;DHT22;59099;48.806;9.160;2022-10-31T07:23:04;10.00;99.90
1301;DHT22;59099;48.806;9.160;2022-10-31T07:25:31;10.00;99.90
1301;DHT22;59099;48.806;9.160;2022-10-31T07:28:15;10.00;99.90
1301;DHT22;59099;48.806;9.160;2022-10-31T07:30:53;10.10;99.90
1301;DHT22;59099;48.806;9.160;2022-10-31T07:33:20;10.10;99.90
1301;DHT22;59099;48.806;9.160;2022-10-31T07:36:15;10.20;99.90
1301;DHT22;59099;48.806;9.160;2022-10-31T07:38:44;10.30;99.90
1301;DHT22;59099;48.806;9.160;2022-10-31T07:41:10;10.40;99.90
1301;DHT22;59099;48.806;9.160;2022-10-31T07:43:48;10.40;99.90
1301;DHT22;59099;48.806;9.160;2022-10-31T07:46:33;10.50;99.90
1301;DHT22;59099;48.806;9.160;2022-10-31T07:49:18;10.70;99.90
1301;DHT22;59099;48.806;9.160;2022-10-31T07:52:03;10.70;99.90
1301;DHT22;59099;48.806;9.160;2022-10-31T07:54:54;10.80;99.90
1301;DHT22;59099;48.806;9.160;2022-10-31T07:57:22;11.00;99.90
1301;DHT22;59099;48.806;9.160;2022-10-31T07:59:52;11.10;99.90
1301;DHT22;59099;48.806;9.160;2022-10-31T08:02:18;11.20;99.90
1301;DHT22;59099;48.806;9.160;2022-10-31T08:05:02;11.30;99.90
1301;DHT22;59099;48.806;9.160;2022-10-31T08:07:36;11.50;99.90
1301;DHT22;59099;48.806;9.160;2022-10-31T08:10:05;11.60;99.90
1301;DHT22;59099;48.806;9.160;2022-10-31T08:12:34;11.70;99.90
1301;DHT22;59099;48.806;9.160;2022-10-31T08:15:07;11.80;99.90
1301;DHT22;59099;48.806;9.160;2022-10-31T08:17:38;12.00;99.90
1301;DHT22;59099;48.806;9.160;2022-10-31T08:20:05;12.30;99.90
1301;DHT22;59099;48.806;9.160;2022-10-31T08:22:37;12.50;99.90
1301;DHT22;59099;48.806;9.160;2022-10-31T08:25:03;12.70;99.90
1301;DHT22;59099;48.806;9.160;2022-10-31T08:27:29;12.90;99.90
1301;DHT22;59099;48.806;9.160;2022-10-31T08:29:58;12.90;99.90
1301;DHT22;59099;48.806;9.160;2022-10-31T08:32:24;12.90;99.90
1301;DHT22;59099;48.806;9.160;2022-10-31T08:35:08;13.00;99.90
1301;DHT22;59099;48.806;9.160;2022-10-31T08:37:54;13.10;99.90
1301;DHT22;59099;48.806;9.160;2022-10-31T08:40:26;13.30;99.90
1301;DHT22;59099;48.806;9.160;2022-10-31T08:43:00;13.50;99.90
1301;DHT22;59099;48.806;9.160;2022-10-31T08:45:26;13.50;99.90
1301;DHT22;59099;48.806;9.160;2022-10-31T08:47:56;13.60;99.90
1301;DHT22;59099;48.806;9.160;2022-10-31T08:50:22;13.70;99.90
1301;DHT22;59099;48.806;9.160;2022-10-31T08:52:48;13.70;99.90
1301;DHT22;59099;48.806;9.160;2022-10-31T08:55:14;13.90;99.90
1301;DHT22;59099;48.806;9.160;2022-10-31T08:57:58;14.00;99.90
1301;DHT22;59099;48.806;9.160;2022-10-31T09:00:32;14.20;99.90
1301;DHT22;59099;48.806;9.160;2022-10-31T09:03:11;14.40;99.90
1301;DHT22;59099;48.806;9.160;2022-10-31T09:05:37;14.60;99.90
1301;DHT22;59099;48.806;9.160;2022-10-31T09:08:05;14.70;99.90
1301;DHT22;59099;48.806;9.160;2022-10-31T09:10:32;14.80;99.90
1301;DHT22;59099;48.806;9.160;2022-10-31T09:13:00;15.00;99.90
1301;DHT22;59099;48.806;9.160;2022-10-31T09:15:51;15.20;99.90
1301;DHT22;59099;48.806;9.160;2022-10-31T09:28:51;15.40;99.90
1301;DHT22;59099;48.806;9.160;2022-10-31T09:31:17;16.40;99.90
1301;DHT22;59099;48.806;9.160;2022-10-31T09:34:18;16.60;99.90
1301;DHT22;59099;48.806;9.160;2022-10-31T09:36:48;16.90;99.90
1301;DHT22;59099;48.806;9.160;2022-10-31T09:39:19;17.10;99.90
1301;DHT22;59099;48.806;9.160;2022-10-31T09:42:17;17.30;99.90
1301;DHT22;59099;48.806;9.160;2022-10-31T09:56:18;17.60;99.90
1301;DHT22;59099;48.806;9.160;2022-10-31T09:58:47;17.90;99.90
1301;DHT22;59099;48.806;9.160;2022-10-31T10:01:28;18.10;99.90
1301;DHT22;59099;48.806;9.160;2022-10-31T10:04:03;18.30;99.90
1301;DHT22;59099;48.806;9.160;2022-10-31T10:06:51;18.50;99.90
1301;DHT22;59099;48.806;9.160;2022-10-31T10:09:46;18.80;99.90
1301;DHT22;59099;48.806;9.160;2022-10-31T10:15:34;19.10;99.90
1301;DHT22;59099;48.806;9.160;2022-10-31T10:25:53;19.90;99.90
1301;DHT22;59099;48.806;9.160;2022-10-31T10:28:32;20.00;99.90
1301;DHT22;59099;48.806;9.160;2022-10-31T10:31:20;20.20;99.90
1301;DHT22;59099;48.806;9.160;2022-10-31T10:36:28;20.40;99.90
1301;DHT22;59099;48.806;9.160;2022-10-31T10:39:08;20.50;99.90
1301;DHT22;59099;48.806;9.160;2022-10-31T10:41:43;20.70;99.90
1301;DHT22;59099;48.806;9.160;2022-10-31T10:44:10;20.80;99.90
1301;DHT22;59099;48.806;9.160;2022-10-31T10:46:54;20.70;99.90
1301;DHT22;59099;48.806;9.160;2022-10-31T10:49:51;20.80;99.90
1301;DHT22;59099;48.806;9.160;2022-10-31T10:58:00;20.90;99.90
1301;DHT22;59099;48.806;9.160;2022-10-31T11:02:57;20.90;99.90
1301;DHT22;59099;48.806;9.160;2022-10-31T11:07:57;20.70;99.90
1301;DHT22;59099;48.806;9.160;2022-10-31T11:10:23;20.60;99.90
1301;DHT22;59099;48.806;9.160;2022-10-31T11:16:26;20.40;99.90
1301;DHT22;59099;48.806;9.160;2022-10-31T11:18:44;20.40;99.90
1301;DHT22;59099;48.806;9.160;2022-10-31T11:21:23;20.40;99.90
1301;DHT22;59099;48.806;9.160;2022-10-31T11:23:50;20.50;99.90
1301;DHT22;59099;48.806;9.160;2022-10-31T11:26:26;20.80;99.90
1301;DHT22;59099;48.806;9.160;2022-10-31T11:28:59;21.30;99.90
1301;DHT22;59099;48.806;9.160;2022-10-31T11:31:26;21.80;99.90
1301;DHT22;59099;48.806;9.160;2022-10-31T11:34:05;22.30;99.90
1301;DHT22;59099;48.806;9.160;2022-10-31T11:36:35;22.80;99.90
1301;DHT22;59099;48.806;9.160;2022-10-31T11:39:05;22.90;99.90
1301;DHT22;59099;48.806;9.160;2022-10-31T11:41:36;23.00;99.90
1301;DHT22;59099;48.806;9.160;2022-10-31T11:44:20;23.00;99.90
1301;DHT22;59099;48.806;9.160;2022-10-31T11:46:50;23.20;99.90
1301;DHT22;59099;48.806;9.160;2022-10-31T11:52:00;23.30;99.90
1301;DHT22;59099;48.806;9.160;2022-10-31T11:54:32;23.40;99.90
1301;DHT22;59099;48.806;9.160;2022-10-31T11:57:00;23.50;99.90
1301;DHT22;59099;48.806;9.160;2022-10-31T11:59:32;23.50;99.90
1301;DHT22;59099;48.806;9.160;2022-10-31T12:02:01;23.40;99.90
1301;DHT22;59099;48.806;9.160;2022-10-31T12:04:41;23.10;99.90
1301;DHT22;59099;48.806;9.160;2022-10-31T12:07:09;23.10;99.90
1301;DHT22;59099;48.806;9.160;2022-10-31T12:09:36;23.00;99.90
1301;DHT22;59099;48.806;9.160;2022-10-31T12:17:40;22.80;99.90
1301;DHT22;59099;48.806;9.160;2022-10-31T12:29:15;23.50;99.90
1301;DHT22;59099;48.806;9.160;2022-10-31T12:45:57;23.40;99.90
1301;DHT22;59099;48.806;9.160;2022-10-31T12:51:46;22.50;99.90
1301;DHT22;59099;48.806;9.160;2022-10-31T12:59:56;21.40;99.90
1301;DHT22;59099;48.806;9.160;2022-10-31T13:02:40;21.10;99.90
1301;DHT22;59099;48.806;9.160;2022-10-31T13:05:30;20.80;99.90
1301;DHT22;59099;48.806;9.160;2022-10-31T13:08:06;20.70;99.90
1301;DHT22;59099;48.806;9.160;2022-10-31T13:10:39;20.50;99.90
1301;DHT22;59099;48.806;9.160;2022-10-31T13:13:13;20.40;99.90
1301;DHT22;59099;48.806;9.160;2022-10-31T13:15:54;20.30;99.90
1301;DHT22;59099;48.806;9.160;2022-10-31T13:18:27;20.30;99.90
1301;DHT22;59099;48.806;9.160;2022-10-31T13:20:57;20.30;99.90
1301;DHT22;59099;48.806;9.160;2022-10-31T13:23:38;20.20;99.90
1301;DHT22;59099;48.806;9.160;2022-10-31T13:26:15;20.10;99.90
1301;DHT22;59099;48.806;9.160;2022-10-31T13:29:05;20.10;99.90
1301;DHT22;59099;48.806;9.160;2022-10-31T13:31:34;20.00;99.90
1301;DHT22;59099;48.806;9.160;2022-10-31T13:34:20;20.00;99.90
1301;DHT22;59099;48.806;9.160;2022-10-31T13:37:00;20.00;99.90
1301;DHT22;59099;48.806;9.160;2022-10-31T13:43:05;20.20;99.90
1301;DHT22;59099;48.806;9.160;2022-10-31T13:45:17;20.70;99.90
1301;DHT22;59099;48.806;9.160;2022-10-31T13:47:43;22.40;99.90
1301;DHT22;59099;48.806;9.160;2022-10-31T13:50:22;23.70;99.90
1301;DHT22;59099;48.806;9.160;2022-10-31T13:52:48;24.20;99.90
1301;DHT22;59099;48.806;9.160;2022-10-31T13:58:29;24.50;99.90
1301;DHT22;59099;48.806;9.160;2022-10-31T14:01:17;24.60;99.90
1301;DHT22;59099;48.806;9.160;2022-10-31T14:03:47;24.70;99.90
1301;DHT22;59099;48.806;9.160;2022-10-31T14:07:08;24.50;99.90
1301;DHT22;59099;48.806;9.160;2022-10-31T14:09:30;24.10;99.90
1301;DHT22;59099;48.806;9.160;2022-10-31T14:11:59;23.60;99.90
1301;DHT22;59099;48.806;9.160;2022-10-31T14:14:32;23.30;99.90
1301;DHT22;59099;48.806;9.160;2022-10-31T14:16:59;22.90;99.90
1301;DHT22;59099;48.806;9.160;2022-10-31T14:19:26;22.80;99.90
1301;DHT22;59099;48.806;9.160;2022-10-31T14:21:52;22.70;99.90
1301;DHT22;59099;48.806;9.160;2022-10-31T14:26:58;22.50;99.90
1301;DHT22;59099;48.806;9.160;2022-10-31T14:29:27;22.30;99.90
1301;DHT22;59099;48.806;9.160;2022-10-31T14:34:30;22.20;99.90
1301;DHT22;59099;48.806;9.160;2022-10-31T14:37:01;22.20;99.90
1301;DHT22;59099;48.806;9.160;2022-10-31T14:53:02;21.20;99.90
1301;DHT22;59099;48.806;9.160;2022-10-31T14:55:29;21.20;99.90
1301;DHT22;59099;48.806;9.160;2022-10-31T14:58:04;21.40;99.90
1301;DHT22;59099;48.806;9.160;2022-10-31T15:00:32;21.40;99.90
1301;DHT22;59099;48.806;9.160;2022-10-31T15:03:20;21.60;99.90
1301;DHT22;59099;48.806;9.160;2022-10-31T15:05:53;21.40;99.90
1301;DHT22;59099;48.806;9.160;2022-10-31T15:08:33;21.00;99.90
1301;DHT22;59099;48.806;9.160;2022-10-31T15:11:08;20.70;99.90
1301;DHT22;59099;48.806;9.160;2022-10-31T15:13:41;20.30;99.90
1301;DHT22;59099;48.806;9.160;2022-10-31T15:16:09;20.00;99.90
1301;DHT22;59099;48.806;9.160;2022-10-31T15:18:44;19.80;99.90
1301;DHT22;59099;48.806;9.160;2022-10-31T15:21:15;19.50;99.90
1301;DHT22;59099;48.806;9.160;2022-10-31T15:23:42;19.20;99.90
1301;DHT22;59099;48.806;9.160;2022-10-31T15:26:17;19.00;99.90
1301;DHT22;59099;48.806;9.160;2022-10-31T15:28:44;18.90;99.90
1301;DHT22;59099;48.806;9.160;2022-10-31T15:31:17;18.80;99.90
1301;DHT22;59099;48.806;9.160;2022-10-31T15:33:47;18.50;99.90
1301;DHT22;59099;48.806;9.160;2022-10-31T15:36:22;18.20;99.90
1301;DHT22;59099;48.806;9.160;2022-10-31T15:38:49;17.80;99.90
1301;DHT22;59099;48.806;9.160;2022-10-31T15:41:57;17.70;99.90
1301;DHT22;59099;48.806;9.160;2022-10-31T15:44:35;17.60;99.90
1301;DHT22;59099;48.806;9.160;2022-10-31T15:47:04;17.50;99.90
1301;DHT22;59099;48.806;9.160;2022-10-31T15:49:35;17.40;99.90
1301;DHT22;59099;48.806;9.160;2022-10-31T15:52:17;17.30;99.90
1301;DHT22;59099;48.806;9.160;2022-10-31T15:54:51;17.30;99.90
1301;DHT22;59099;48.806;9.160;2022-10-31T15:57:18;17.00;99.90
1301;DHT22;59099;48.806;9.160;2022-10-31T15:59:48;16.80;99.90
1301;DHT22;59099;48.806;9.160;2022-10-31T16:02:19;16.60;99.90
1301;DHT22;59099;48.806;9.160;2022-10-31T16:04:52;16.50;99.90
1301;DHT22;59099;48.806;9.160;2022-10-31T16:07:19;16.40;99.90
1301;DHT22;59099;48.806;9.160;2022-10-31T16:09:57;16.40;99.90
1301;DHT22;59099;48.806;9.160;2022-10-31T16:12:24;16.30;99.90
1301;DHT22;59099;48.806;9.160;2022-10-31T16:14:52;16.20;99.90
1301;DHT22;59099;48.806;9.160;2022-10-31T16:17:21;16.20;99.90
1301;DHT22;59099;48.806;9.160;2022-10-31T16:22:30;15.80;99.90
1301;DHT22;59099;48.806;9.160;2022-10-31T16:25:12;15.80;99.90
1301;DHT22;59099;48.806;9.160;2022-10-31T16:27:40;15.70;99.90
1301;DHT22;59099;48.806;9.160;2022-10-31T16:32:56;15.50;99.90
1301;DHT22;59099;48.806;9.160;2022-10-31T16:35:37;15.40;99.90
1301;DHT22;59099;48.806;9.160;2022-10-31T16:38:04;15.20;99.90
1301;DHT22;59099;48.806;9.160;2022-10-31T16:40:31;15.20;99.90
1301;DHT22;59099;48.806;9.160;2022-10-31T16:42:58;15.00;99.90
1301;DHT22;59099;48.806;9.160;2022-10-31T16:45:27;14.90;99.90
1301;DHT22;59099;48.806;9.160;2022-10-31T16:47:54;14.80;99.90
1301;DHT22;59099;48.806;9.160;2022-10-31T16:50:27;14.60;99.90
1301;DHT22;59099;48.806;9.160;2022-10-31T16:52:53;14.60;99.90
1301;DHT22;59099;48.806;9.160;2022-10-31T16:55:19;14.50;99.90
1301;DHT22;59099;48.806;9.160;2022-10-31T16:57:48;14.50;99.90
1301;DHT22;59099;48.806;9.160;2022-10-31T17:00:18;14.50;99.90
1301;DHT22;59099;48.806;9.160;2022-10-31T17:02:45;14.50;99.90
1301;DHT22;59099;48.806;9.160;2022-10-31T17:05:13;14.40;99.90
1301;DHT22;59099;48.806;9.160;2022-10-31T17:07:39;14.30;99.90
1301;DHT22;59099;48.806;9.160;2022-10-31T17:10:06;14.30;99.90
1301;DHT22;59099;48.806;9.160;2022-10-31T17:12:32;14.30;99.90
1301;DHT22;59099;48.806;9.160;2022-10-31T17:14:57;14.40;99.90
1301;DHT22;59099;48.806;9.160;2022-10-31T17:17:23;14.30;99.90
1301;DHT22;59099;48.806;9.160;2022-10-31T17:19:49;14.10;99.90
1301;DHT22;59099;48.806;9.160;2022-10-31T17:22:14;14.00;99.90
1301;DHT22;59099;48.806;9.160;2022-10-31T17:24:40;13.90;99.90
1301;DHT22;59099;48.806;9.160;2022-10-31T17:27:06;14.00;99.90
1301;DHT22;59099;48.806;9.160;2022-10-31T17:29:32;14.00;99.90
1301;DHT22;59099;48.806;9.160;2022-10-31T17:31:58;14.00;99.90
1301;DHT22;59099;48.806;9.160;2022-10-31T17:34:24;13.80;99.90
1301;DHT22;59099;48.806;9.160;2022-10-31T17:36:51;13.70;99.90
1301;DHT22;59099;48.806;9.160;2022-10-31T17:39:20;13.60;99.90
1301;DHT22;59099;48.806;9.160;2022-10-31T17:41:50;13.60;99.90
1301;DHT22;59099;48.806;9.160;2022-10-31T17:44:17;13.60;99.90
1301;DHT22;59099;48.806;9.160;2022-10-31T17:46:43;13.50;99.90
1301;DHT22;59099;48.806;9.160;2022-10-31T17:49:13;13.60;99.90
1301;DHT22;59099;48.806;9.160;2022-10-31T17:51:39;13.50;99.90
1301;DHT22;59099;48.806;9.160;2022-10-31T17:54:05;13.40;99.90
1301;DHT22;59099;48.806;9.160;2022-10-31T17:56:33;13.30;99.90
1301;DHT22;59099;48.806;9.160;2022-10-31T17:58:58;13.30;99.90
1301;DHT22;59099;48.806;9.160;2022-10-31T18:01:24;13.40;99.90
1301;DHT22;59099;48.806;9.160;2022-10-31T18:03:50;13.40;99.90
1301;DHT22;59099;48.806;9.160;2022-10-31T18:06:16;13.30;99.90
1301;DHT22;59099;48.806;9.160;2022-10-31T18:08:42;13.20;99.90
1301;DHT22;59099;48.806;9.160;2022-10-31T18:11:11;13.10;99.90
1301;DHT22;59099;48.806;9.160;2022-10-31T18:13:38;13.00;99.90
1301;DHT22;59099;48.806;9.160;2022-10-31T18:16:12;13.00;99.90
1301;DHT22;59099;48.806;9.160;2022-10-31T18:18:38;12.90;99.90
1301;DHT22;59099;48.806;9.160;2022-10-31T18:21:04;12.80;99.90
1301;DHT22;59099;48.806;9.160;2022-10-31T18:23:30;12.90;99.90
1301;DHT22;59099;48.806;9.160;2022-10-31T18:25:56;12.80;99.90
1301;DHT22;59099;48.806;9.160;2022-10-31T18:28:21;12.70;99.90
1301;DHT22;59099;48.806;9.160;2022-10-31T18:30:47;12.80;99.90
1301;DHT22;59099;48.806;9.160;2022-10-31T18:33:13;12.80;99.90
1301;DHT22;59099;48.806;9.160;2022-10-31T18:35:39;12.80;99.90
1301;DHT22;59099;48.806;9.160;2022-10-31T18:38:05;12.80;99.90
1301;DHT22;59099;48.806;9.160;2022-10-31T18:40:32;12.80;99.90
1301;DHT22;59099;48.806;9.160;2022-10-31T18:42:58;12.80;99.90
1301;DHT22;59099;48.806;9.160;2022-10-31T18:45:23;12.80;99.90
1301;DHT22;59099;48.806;9.160;2022-10-31T18:47:52;13.00;99.90
1301;DHT22;59099;48.806;9.160;2022-10-31T18:50:19;12.90;99.90